PTAO2: Poteau River, Poteau, OK

                                SHEF ID:       PTAO2     Poteau River at Poteau, OK
STATION TYPE:
Regulating: Stage = 20.00, Flow = 7395

PRECIP STAGE RIV-FLOW VOLTAGE BAT-LOAD
in ft cfs volt volt
Ccp-Rev Ccp-Rev Ccp-Rev Ccp-Rev Ccp-Rev
(America/Chicago)
04/28 00:00 0.00 4.79 1041 12.88 12.40
04/28 01:00 0.00 4.58 969 12.86 12.36
04/28 02:00 0.00 4.40 906 12.85 12.36
04/28 03:00 0.00 4.23 840 12.83 12.33
04/28 04:00 0.00 4.10 791 12.80 12.31
04/28 05:00 0.00 3.97 743 12.79 12.29
04/28 06:00 0.00 3.87 706 12.78 12.27
04/28 07:00 0.00 3.78 673 12.80 12.29
04/28 08:00 0.00 3.70 644 13.24 12.54
04/28 09:00 0.00 3.64 623 14.03 13.07
04/28 10:00 0.00 3.59 605 13.91 13.06
04/28 11:00 0.00 3.53 584 13.37 12.85
04/28 12:00 0.07 3.50 574 13.22 12.76
04/28 13:00 0.04 3.48 567 13.56 12.90
04/28 14:00 0.01 3.46 560 13.36 12.82
04/28 15:00 0.00 3.59 605 13.26 12.73
04/28 16:00 0.00 4.27 856 13.32 12.70
04/28 17:00 0.00 5.57 1204 13.13 12.67
04/28 18:00 0.75 7.10 1518 13.62 12.77
04/28 19:00 0.00 8.60 1854 13.62 12.88
04/28 20:00 0.00 9.88 2229 13.19 12.76
04/28 21:00 0.00 10.77 2540 13.03 12.58
04/28 22:00 0.00 11.36 2762 12.96 12.50
04/28 23:00 0.00 11.91 3021 12.91 12.45
Data processed at Wed 29Apr2026 04:48 GMT

NOTICE: If you are parsing this page

Please convert to using our Data API. Starting early 2026 we will be migrating to: https://water.usace.army.mil with modern pages rendered in JavaScript. When this migration completes you will no longer be able to scrape this page! CWMSDataAPI (CDA)

Timeseries IDs (TSIDs)

TSIDs used from left to right in the data table
POTE.Precip-Inc.Total.1Hour.1Hour.Ccp-Rev
POTE.Stage.Inst.1Hour.0.Ccp-Rev
POTE.Flow.Inst.1Hour.0.Ccp-Rev
POTE.Volt-Battery.Inst.1Hour.0.Ccp-Rev
POTE.Volt-Battery Load.Inst.1Hour.0.Ccp-Rev

                            

All information presented herein is the property of the government of the United States of America and may be revised or deleted at any time without prior notice. Dissemination of this information without the expressed written consent of the Public Affairs Office, Tulsa District U.S. Army Corps of Engineers is strictly prohibited. These data are gathered electronically and, as presented, have NOT undergone any form of quality control. These data are NOT guaranteed to be valid or correct.